createdAt,value
2022-12-13T00:01:57.703Z,25.60
2022-12-13T00:04:59.396Z,26.17
2022-12-13T00:08:01.873Z,22.85
2022-12-13T00:11:06.512Z,23.23
2022-12-13T00:14:08.131Z,18.00
2022-12-13T00:17:09.760Z,18.17
2022-12-13T00:20:12.646Z,15.65
2022-12-13T00:23:14.281Z,18.07
2022-12-13T00:26:19.089Z,12.35
2022-12-13T00:29:20.806Z,13.77
2022-12-13T00:32:22.437Z,14.20
2022-12-13T00:35:24.672Z,14.68
2022-12-13T00:38:26.224Z,27.33
2022-12-13T00:41:33.525Z,23.67
2022-12-13T00:44:35.167Z,18.85
2022-12-13T00:47:36.865Z,22.02
2022-12-13T00:50:38.802Z,20.13
2022-12-13T00:53:40.420Z,22.38
2022-12-13T00:56:42.332Z,23.20
2022-12-13T00:59:43.911Z,22.58
2022-12-13T01:02:45.829Z,24.13
2022-12-13T01:06:14.325Z,23.23
2022-12-13T01:09:19.945Z,21.83
2022-12-13T01:12:21.756Z,22.40
2022-12-13T01:15:23.215Z,22.00
2022-12-13T01:18:24.778Z,22.30
2022-12-13T01:21:26.496Z,17.13
2022-12-13T01:24:29.526Z,19.38
2022-12-13T01:27:31.139Z,18.42
2022-12-13T01:30:32.810Z,23.48
2022-12-13T01:33:34.651Z,17.60
2022-12-13T01:36:38.209Z,16.38
2022-12-13T01:42:41.583Z,15.88
2022-12-13T01:45:44.058Z,20.05
2022-12-13T01:49:24.221Z,27.90
2022-12-13T01:52:26.127Z,19.35
2022-12-13T01:55:31.878Z,25.67
2022-12-13T01:58:36.688Z,18.80
2022-12-13T02:01:39.030Z,20.25
2022-12-13T02:04:50.821Z,16.02
2022-12-13T02:07:53.051Z,16.13
2022-12-13T02:10:54.997Z,18.80
2022-12-13T02:13:56.549Z,23.42
2022-12-13T02:17:11.735Z,20.50
2022-12-13T02:20:22.601Z,20.70
2022-12-13T02:23:45.864Z,22.30
2022-12-13T02:27:30.295Z,21.95
2022-12-13T02:30:43.150Z,22.63
2022-12-13T02:34:00.990Z,23.15
2022-12-13T02:37:37.736Z,24.63
2022-12-13T02:40:45.316Z,21.15
2022-12-13T02:43:53.962Z,21.90
2022-12-13T02:47:12.741Z,21.15
2022-12-13T02:50:26.160Z,19.10
2022-12-13T02:53:28.983Z,20.55
2022-12-13T02:56:32.101Z,20.70
2022-12-13T02:59:36.696Z,20.73
2022-12-13T03:03:12.124Z,19.08
2022-12-13T03:06:34.288Z,17.27
2022-12-13T03:10:18.750Z,16.90
2022-12-13T03:13:38.986Z,17.80
2022-12-13T03:16:44.017Z,17.25
2022-12-13T03:19:47.198Z,16.77
2022-12-13T03:22:48.793Z,11.30
2022-12-13T03:25:55.816Z,14.18
2022-12-13T03:28:57.412Z,13.48
2022-12-13T03:32:00.126Z,13.05
2022-12-13T03:35:01.744Z,15.77
2022-12-13T03:38:04.150Z,13.93
2022-12-13T03:41:09.872Z,16.08
2022-12-13T03:44:11.432Z,9.52
2022-12-13T03:47:12.892Z,12.68
2022-12-13T03:50:27.200Z,9.55
2022-12-13T03:53:33.147Z,11.25
2022-12-13T03:56:35.456Z,11.20
2022-12-13T03:59:39.047Z,9.40
2022-12-13T04:02:40.725Z,10.18
2022-12-13T04:05:42.789Z,10.48
2022-12-13T04:08:44.438Z,10.52
2022-12-13T04:12:04.312Z,10.93
2022-12-13T04:15:06.607Z,11.25
2022-12-13T04:18:08.260Z,10.77
2022-12-13T04:21:10.632Z,11.45
2022-12-13T04:24:12.211Z,11.48
2022-12-13T04:27:13.793Z,10.82
2022-12-13T04:30:15.384Z,9.38
2022-12-13T04:33:16.976Z,15.65
2022-12-13T04:36:31.872Z,11.68
2022-12-13T04:39:34.684Z,15.32
2022-12-13T04:42:36.544Z,13.20
2022-12-13T04:45:38.325Z,15.75
2022-12-13T04:48:39.956Z,13.88
2022-12-13T04:51:41.601Z,17.08
2022-12-13T04:54:56.147Z,18.67
2022-12-13T04:57:58.081Z,18.40
2022-12-13T05:00:59.782Z,19.52
2022-12-13T05:04:04.225Z,18.67
2022-12-13T05:07:05.860Z,18.97
2022-12-13T05:10:08.281Z,20.85
2022-12-13T05:13:09.855Z,22.33
2022-12-13T05:16:11.840Z,20.95
2022-12-13T05:19:13.937Z,23.70
2022-12-13T05:22:19.738Z,25.25
2022-12-13T05:25:22.034Z,19.73
2022-12-13T05:28:28.180Z,23.25
2022-12-13T05:31:30.459Z,21.27
2022-12-13T05:34:31.970Z,20.35
2022-12-13T05:37:34.875Z,21.85
2022-12-13T05:40:36.670Z,21.42
2022-12-13T05:43:43.097Z,22.88
2022-12-13T05:46:45.408Z,29.63
2022-12-13T05:49:46.935Z,29.70
2022-12-13T05:52:48.476Z,22.77
2022-12-13T05:55:50.137Z,19.73
2022-12-13T05:58:53.369Z,19.83
2022-12-13T06:01:57.010Z,27.83
2022-12-13T06:04:58.683Z,18.92
2022-12-13T06:08:00.509Z,24.00
2022-12-13T06:11:11.489Z,20.10
2022-12-13T06:14:21.727Z,23.67
2022-12-13T06:17:25.208Z,42.05
2022-12-13T06:20:27.023Z,30.08
2022-12-13T06:23:31.185Z,29.25
2022-12-13T06:26:32.748Z,31.50
2022-12-13T06:29:34.303Z,33.72
2022-12-13T06:32:38.911Z,38.67
2022-12-13T06:35:42.805Z,65.55
2022-12-13T06:38:44.339Z,55.90
2022-12-13T06:41:45.854Z,58.78
2022-12-13T06:44:47.464Z,53.10
2022-12-13T06:47:49.061Z,56.67
2022-12-13T06:50:50.580Z,57.65
2022-12-13T06:53:52.120Z,56.95
2022-12-13T06:56:53.663Z,60.97
2022-12-13T06:59:55.289Z,66.07
2022-12-13T07:02:56.974Z,60.10
2022-12-13T07:05:59.959Z,58.33
2022-12-13T07:09:03.708Z,62.97
2022-12-13T07:12:05.542Z,53.40
2022-12-13T07:15:07.803Z,56.30
2022-12-13T07:18:09.368Z,60.70
2022-12-13T07:21:21.353Z,59.13
2022-12-13T07:24:23.538Z,51.30
2022-12-13T07:27:25.116Z,50.22
2022-12-13T07:30:26.739Z,52.67
2022-12-13T07:33:32.331Z,58.38
2022-12-13T07:36:33.837Z,48.17
2022-12-13T07:39:35.343Z,52.28
2022-12-13T07:42:36.863Z,48.97
2022-12-13T07:45:39.490Z,64.43
2022-12-13T07:48:41.285Z,56.75
2022-12-13T07:51:42.798Z,57.90
2022-12-13T07:54:44.356Z,77.20
2022-12-13T07:57:45.914Z,62.08
2022-12-13T08:00:47.534Z,56.33
2022-12-13T08:03:50.468Z,58.78
2022-12-13T08:06:52.009Z,53.47
2022-12-13T08:09:55.220Z,52.03
2022-12-13T08:12:56.984Z,55.20
2022-12-13T08:16:04.039Z,49.15
2022-12-13T08:19:05.631Z,56.72
2022-12-13T08:22:14.411Z,57.10
2022-12-13T08:25:16.016Z,52.40
2022-12-13T08:28:18.488Z,58.22
2022-12-13T08:31:20.067Z,53.28
2022-12-13T08:34:21.637Z,58.38
2022-12-13T08:37:23.119Z,55.33
2022-12-13T08:40:24.674Z,57.42
2022-12-13T08:43:26.299Z,57.00
2022-12-13T08:46:27.999Z,51.70
2022-12-13T08:49:29.794Z,55.75
2022-12-13T08:52:39.301Z,61.00
2022-12-13T08:55:42.658Z,49.38
2022-12-13T08:58:44.982Z,53.30
2022-12-13T09:01:46.799Z,58.92
2022-12-13T09:04:49.198Z,61.47
2022-12-13T09:07:55.388Z,57.67
2022-12-13T09:11:01.355Z,58.30
2022-12-13T09:14:14.248Z,54.78
2022-12-13T09:17:16.635Z,51.85
2022-12-13T09:20:29.843Z,49.90
2022-12-13T09:23:31.647Z,52.33
2022-12-13T09:26:37.727Z,51.53
2022-12-13T09:29:40.386Z,52.80
2022-12-13T09:32:43.557Z,51.75
2022-12-13T09:35:45.400Z,56.47
2022-12-13T09:38:47.631Z,49.63
2022-12-13T09:42:00.745Z,51.83
2022-12-13T09:45:06.469Z,59.33
2022-12-13T09:48:24.792Z,48.00
2022-12-13T09:51:43.540Z,47.92
2022-12-13T09:54:49.005Z,42.70
2022-12-13T09:57:52.501Z,48.72
2022-12-13T10:00:56.684Z,45.37
2022-12-13T10:04:00.230Z,47.05
2022-12-13T10:07:03.623Z,49.55
2022-12-13T10:10:05.396Z,57.42
2022-12-13T10:13:24.288Z,54.85
2022-12-13T10:16:36.395Z,55.25
2022-12-13T10:19:44.152Z,50.17
2022-12-13T10:23:08.014Z,48.53
2022-12-13T10:26:14.776Z,45.75
2022-12-13T10:29:25.906Z,50.60
2022-12-13T10:32:28.268Z,51.63
2022-12-13T10:35:37.404Z,48.70
2022-12-13T10:38:41.641Z,45.60
2022-12-13T10:41:43.380Z,45.83
2022-12-13T10:44:45.756Z,47.35
2022-12-13T10:47:47.409Z,42.33
2022-12-13T10:51:02.578Z,41.97
2022-12-13T10:54:05.263Z,47.42
2022-12-13T10:57:11.455Z,44.75
2022-12-13T11:00:39.007Z,43.97
2022-12-13T11:03:40.862Z,35.20
2022-12-13T11:06:47.437Z,41.97
2022-12-13T11:09:52.532Z,38.47
2022-12-13T11:13:01.654Z,44.95
2022-12-13T11:16:05.319Z,44.05
2022-12-13T11:19:18.373Z,43.53
2022-12-13T11:22:32.247Z,43.05
2022-12-13T11:25:40.609Z,45.35
2022-12-13T11:28:55.635Z,44.70
2022-12-13T11:32:11.031Z,42.25
2022-12-13T11:35:24.922Z,47.80
2022-12-13T11:38:36.193Z,43.17
2022-12-13T11:42:09.699Z,40.92
2022-12-13T11:45:24.363Z,39.00
2022-12-13T11:48:51.007Z,39.83
2022-12-13T11:51:59.876Z,43.60
2022-12-13T11:55:17.525Z,38.92
2022-12-13T11:59:09.565Z,35.40
2022-12-13T12:02:29.493Z,38.55
2022-12-13T12:05:37.210Z,40.25
2022-12-13T12:08:47.151Z,36.78
2022-12-13T12:12:00.280Z,37.40
2022-12-13T12:15:15.618Z,43.78
2022-12-13T12:18:18.141Z,42.58
2022-12-13T12:21:56.518Z,44.30
2022-12-13T12:25:11.785Z,42.38
2022-12-13T12:28:50.974Z,46.33
2022-12-13T12:32:23.967Z,47.67
2022-12-13T12:35:33.107Z,42.50
2022-12-13T12:38:34.657Z,43.92
2022-12-13T12:42:19.692Z,45.22
2022-12-13T12:49:37.650Z,41.58
2022-12-13T12:53:02.920Z,45.70
2022-12-13T12:56:25.155Z,45.42
2022-12-13T12:59:45.797Z,43.83
2022-12-13T13:02:53.130Z,43.88
2022-12-13T13:06:03.884Z,41.42
2022-12-13T13:09:09.128Z,42.22
2022-12-13T13:12:30.035Z,39.25
2022-12-13T13:15:32.509Z,42.47
2022-12-13T13:18:51.639Z,42.92
2022-12-13T13:22:02.103Z,43.80
2022-12-13T13:25:07.193Z,41.28
2022-12-13T13:28:18.857Z,42.42
2022-12-13T13:31:20.505Z,41.55
2022-12-13T13:34:25.587Z,36.30
2022-12-13T13:37:44.963Z,40.78
2022-12-13T13:40:46.535Z,42.58
2022-12-13T13:43:48.180Z,49.10
2022-12-13T13:47:14.401Z,36.40
2022-12-13T13:50:35.608Z,41.35
2022-12-13T13:53:56.544Z,36.72
2022-12-13T13:57:38.546Z,36.28
2022-12-13T14:00:50.344Z,35.70
2022-12-13T14:04:31.665Z,38.10
2022-12-13T14:07:36.290Z,39.33
2022-12-13T14:11:04.882Z,38.78
2022-12-13T14:14:38.561Z,38.92
2022-12-13T14:18:08.028Z,37.55
2022-12-13T14:21:41.665Z,38.20
2022-12-13T14:24:55.293Z,42.30
2022-12-13T14:28:22.145Z,42.17
2022-12-13T14:31:36.992Z,43.08
2022-12-13T14:34:39.446Z,47.70
2022-12-13T14:37:40.947Z,44.15
2022-12-13T14:40:52.104Z,44.45
2022-12-13T14:43:53.695Z,42.97
2022-12-13T14:46:59.006Z,45.95
2022-12-13T14:50:00.628Z,48.38
2022-12-13T14:53:05.370Z,43.58
2022-12-13T14:56:18.723Z,39.25
2022-12-13T14:59:31.310Z,45.08
2022-12-13T15:02:33.701Z,45.17
2022-12-13T15:05:48.797Z,39.20
2022-12-13T15:08:52.050Z,47.83
2022-12-13T15:11:54.074Z,41.15
2022-12-13T15:15:00.037Z,46.30
2022-12-13T15:18:11.106Z,43.53
2022-12-13T15:21:29.983Z,45.22
2022-12-13T15:24:40.951Z,41.15
2022-12-13T15:27:51.154Z,43.10
2022-12-13T15:30:52.844Z,38.28
2022-12-13T15:34:00.967Z,39.58
2022-12-13T15:37:29.708Z,37.03
2022-12-13T15:40:31.973Z,38.65
2022-12-13T15:43:43.533Z,40.10
2022-12-13T15:46:48.047Z,40.65
2022-12-13T15:49:59.950Z,38.97
2022-12-13T15:53:06.433Z,40.53
2022-12-13T15:57:01.680Z,37.22
2022-12-13T16:03:21.546Z,41.35
2022-12-13T16:06:26.458Z,38.30
2022-12-13T16:09:33.459Z,39.88
2022-12-13T16:12:47.798Z,42.85
2022-12-13T16:15:53.180Z,35.65
2022-12-13T16:19:17.901Z,47.20
2022-12-13T16:22:21.833Z,38.90
2022-12-13T16:25:23.515Z,42.55
2022-12-13T16:28:26.091Z,40.30
2022-12-13T16:31:48.945Z,41.05
2022-12-13T16:34:52.091Z,54.10
2022-12-13T16:37:53.698Z,45.13
2022-12-13T16:41:08.832Z,40.33
2022-12-13T16:44:21.915Z,42.40
2022-12-13T16:47:36.428Z,47.60
2022-12-13T16:55:23.791Z,43.75
2022-12-13T16:58:25.932Z,38.83
2022-12-13T17:01:27.576Z,43.03
2022-12-13T17:04:29.126Z,40.00
2022-12-13T17:07:30.840Z,40.90
2022-12-13T17:10:32.422Z,38.50
2022-12-13T17:13:34.739Z,40.92
2022-12-13T17:16:36.400Z,42.08
2022-12-13T17:19:38.076Z,43.42
2022-12-13T17:22:39.570Z,43.22
2022-12-13T17:25:41.320Z,40.20
2022-12-13T17:28:42.917Z,41.03
2022-12-13T17:31:44.789Z,43.05
2022-12-13T17:34:46.294Z,42.90
2022-12-13T17:37:47.971Z,47.70
2022-12-13T17:40:54.868Z,45.15
2022-12-13T17:44:03.230Z,44.17
2022-12-13T17:47:04.931Z,43.00
2022-12-13T17:50:06.722Z,50.88
2022-12-13T17:53:08.245Z,51.45
2022-12-13T17:56:12.567Z,50.35
2022-12-13T17:59:15.350Z,43.25
2022-12-13T18:02:22.644Z,39.90
2022-12-13T18:05:27.541Z,41.80
2022-12-13T18:08:29.074Z,46.20
2022-12-13T18:11:33.665Z,42.20
2022-12-13T18:14:36.648Z,47.20
2022-12-13T18:18:09.465Z,43.13
2022-12-13T18:21:07.408Z,40.97
2022-12-13T18:24:09.686Z,46.38
2022-12-13T18:27:17.817Z,47.88
2022-12-13T18:30:19.558Z,39.90
2022-12-13T18:33:31.104Z,38.38
2022-12-13T18:36:33.262Z,38.97
2022-12-13T18:39:35.011Z,36.95
2022-12-13T18:42:36.679Z,38.97
2022-12-13T18:45:38.210Z,38.85
2022-12-13T18:48:39.984Z,41.63
2022-12-13T18:51:45.986Z,41.10
2022-12-13T18:54:54.579Z,42.15
2022-12-13T18:57:56.673Z,35.65
2022-12-13T19:00:58.581Z,40.85
2022-12-13T19:04:00.360Z,40.40
2022-12-13T19:07:01.988Z,41.45
2022-12-13T19:10:05.224Z,37.10
2022-12-13T19:13:06.709Z,31.30
2022-12-13T19:16:10.989Z,37.30
2022-12-13T19:19:13.178Z,33.00
2022-12-13T19:22:15.765Z,35.83
2022-12-13T19:25:17.343Z,41.95
2022-12-13T19:28:18.971Z,38.58
2022-12-13T19:31:23.160Z,42.50
2022-12-13T19:34:28.588Z,34.67
2022-12-13T19:37:30.159Z,40.50
2022-12-13T19:40:31.758Z,38.33
2022-12-13T19:43:36.878Z,37.83
2022-12-13T19:46:38.515Z,36.67
2022-12-13T19:49:40.078Z,37.42
2022-12-13T19:52:41.988Z,44.38
2022-12-13T19:55:48.329Z,41.83
2022-12-13T19:58:51.115Z,43.13
2022-12-13T20:01:52.764Z,35.53
2022-12-13T20:04:54.428Z,36.90
2022-12-13T20:07:58.045Z,33.92
2022-12-13T20:11:09.111Z,41.72
2022-12-13T20:14:10.614Z,39.97
2022-12-13T20:17:12.089Z,40.50
2022-12-13T20:20:13.792Z,37.10
2022-12-13T20:23:15.924Z,40.92
2022-12-13T20:26:23.170Z,37.60
2022-12-13T20:29:24.945Z,37.03
2022-12-13T20:32:26.806Z,37.78
2022-12-13T20:35:28.510Z,32.58
2022-12-13T20:38:30.445Z,35.55
2022-12-13T20:41:34.458Z,36.40
2022-12-13T20:44:36.568Z,41.97
2022-12-13T20:47:38.285Z,37.28
2022-12-13T20:50:40.005Z,40.30
2022-12-13T20:53:46.878Z,38.42
2022-12-13T20:56:48.503Z,43.38
2022-12-13T20:59:50.086Z,37.45
2022-12-13T21:02:51.699Z,36.60
2022-12-13T21:06:00.281Z,37.72
2022-12-13T21:09:03.755Z,39.25
2022-12-13T21:12:05.456Z,38.70
2022-12-13T21:15:11.017Z,36.58
2022-12-13T21:18:17.931Z,37.53
2022-12-13T21:21:19.948Z,40.85
2022-12-13T21:24:23.728Z,37.20
2022-12-13T21:27:25.370Z,38.70
2022-12-13T21:30:26.888Z,37.00
2022-12-13T21:33:29.347Z,40.58
2022-12-13T21:36:34.498Z,37.47
2022-12-13T21:39:35.999Z,39.97
2022-12-13T21:42:38.570Z,35.15
2022-12-13T21:45:42.892Z,38.45
2022-12-13T21:48:45.941Z,37.10
2022-12-13T21:51:48.397Z,39.63
2022-12-13T21:54:52.917Z,40.35
2022-12-13T21:58:20.486Z,38.35
2022-12-13T22:01:24.718Z,39.45
2022-12-13T22:04:26.292Z,39.65
2022-12-13T22:07:30.008Z,38.55
2022-12-13T22:10:31.723Z,35.05
2022-12-13T22:13:33.381Z,40.70
2022-12-13T22:16:35.091Z,39.78
2022-12-13T22:19:36.611Z,37.20
2022-12-13T22:22:39.819Z,36.75
2022-12-13T22:25:41.306Z,36.03
2022-12-13T22:28:42.833Z,37.10
2022-12-13T22:31:44.516Z,36.60
2022-12-13T22:34:50.634Z,39.03
2022-12-13T22:37:52.840Z,38.50
2022-12-13T22:40:54.310Z,36.95
2022-12-13T22:43:56.281Z,40.85
2022-12-13T22:46:57.807Z,42.80
2022-12-13T22:49:59.388Z,43.08
2022-12-13T22:53:01.702Z,38.80
2022-12-13T22:56:11.478Z,39.88
2022-12-13T22:59:13.017Z,40.15
2022-12-13T23:02:14.752Z,36.13
2022-12-13T23:05:16.640Z,38.38
2022-12-13T23:08:18.081Z,46.08
2022-12-13T23:11:39.031Z,40.67
2022-12-13T23:14:40.507Z,39.63
2022-12-13T23:17:41.999Z,40.35
2022-12-13T23:20:45.391Z,40.42
2022-12-13T23:23:50.144Z,37.65
2022-12-13T23:26:51.728Z,34.75
2022-12-13T23:29:53.213Z,35.70
2022-12-13T23:32:55.656Z,42.28
2022-12-13T23:36:06.304Z,38.47
2022-12-13T23:39:11.493Z,39.50
2022-12-13T23:42:13.363Z,35.05
2022-12-13T23:45:15.212Z,41.15
2022-12-13T23:48:16.705Z,40.47
2022-12-13T23:51:18.951Z,35.67
2022-12-13T23:54:20.508Z,37.58
2022-12-13T23:57:22.019Z,40.13
